sensor_id;sensor_type;location;lat;lon;timestamp;P1;durP1;ratioP1;P2;durP2;ratioP2
15077;SDS011;7638;49.760;8.646;2022-07-21T00:01:11;7.10;;;6.10;;
15077;SDS011;7638;49.760;8.646;2022-07-21T00:03:37;8.40;;;6.50;;
15077;SDS011;7638;49.760;8.646;2022-07-21T00:06:03;9.53;;;5.97;;
15077;SDS011;7638;49.760;8.646;2022-07-21T00:08:29;13.90;;;6.97;;
15077;SDS011;7638;49.760;8.646;2022-07-21T00:10:55;7.00;;;6.17;;
15077;SDS011;7638;49.760;8.646;2022-07-21T00:13:21;7.20;;;6.23;;
15077;SDS011;7638;49.760;8.646;2022-07-21T00:15:47;9.23;;;5.73;;
15077;SDS011;7638;49.760;8.646;2022-07-21T00:18:16;12.77;;;7.30;;
15077;SDS011;7638;49.760;8.646;2022-07-21T00:20:42;11.27;;;7.20;;
15077;SDS011;7638;49.760;8.646;2022-07-21T00:23:08;9.53;;;7.30;;
15077;SDS011;7638;49.760;8.646;2022-07-21T00:25:34;11.90;;;7.30;;
15077;SDS011;7638;49.760;8.646;2022-07-21T00:28:02;14.67;;;8.20;;
15077;SDS011;7638;49.760;8.646;2022-07-21T00:30:28;10.73;;;7.20;;
15077;SDS011;7638;49.760;8.646;2022-07-21T00:32:54;10.90;;;7.07;;
15077;SDS011;7638;49.760;8.646;2022-07-21T00:35:21;9.13;;;6.37;;
15077;SDS011;7638;49.760;8.646;2022-07-21T00:37:47;9.87;;;7.27;;
15077;SDS011;7638;49.760;8.646;2022-07-21T00:40:13;9.93;;;5.50;;
15077;SDS011;7638;49.760;8.646;2022-07-21T00:42:40;6.13;;;5.53;;
15077;SDS011;7638;49.760;8.646;2022-07-21T00:45:07;6.90;;;4.80;;
15077;SDS011;7638;49.760;8.646;2022-07-21T00:47:34;6.77;;;5.80;;
15077;SDS011;7638;49.760;8.646;2022-07-21T00:50:02;7.10;;;6.37;;
15077;SDS011;7638;49.760;8.646;2022-07-21T00:52:28;7.97;;;6.03;;
15077;SDS011;7638;49.760;8.646;2022-07-21T00:54:54;6.77;;;5.67;;
15077;SDS011;7638;49.760;8.646;2022-07-21T00:57:20;9.80;;;6.60;;
15077;SDS011;7638;49.760;8.646;2022-07-21T00:59:46;10.67;;;6.27;;
15077;SDS011;7638;49.760;8.646;2022-07-21T01:02:12;7.93;;;6.93;;
15077;SDS011;7638;49.760;8.646;2022-07-21T01:04:38;8.30;;;7.43;;
15077;SDS011;7638;49.760;8.646;2022-07-21T01:07:05;10.07;;;7.93;;
15077;SDS011;7638;49.760;8.646;2022-07-21T01:09:32;15.17;;;8.33;;
15077;SDS011;7638;49.760;8.646;2022-07-21T01:11:58;9.70;;;8.57;;
15077;SDS011;7638;49.760;8.646;2022-07-21T01:14:24;10.47;;;9.20;;
15077;SDS011;7638;49.760;8.646;2022-07-21T01:16:50;15.07;;;10.13;;
15077;SDS011;7638;49.760;8.646;2022-07-21T01:19:17;11.80;;;10.63;;
15077;SDS011;7638;49.760;8.646;2022-07-21T01:21:45;13.33;;;11.37;;
15077;SDS011;7638;49.760;8.646;2022-07-21T01:24:11;14.90;;;12.63;;
15077;SDS011;7638;49.760;8.646;2022-07-21T01:26:41;17.63;;;11.57;;
15077;SDS011;7638;49.760;8.646;2022-07-21T01:29:07;14.17;;;12.03;;
15077;SDS011;7638;49.760;8.646;2022-07-21T01:31:35;15.87;;;11.77;;
15077;SDS011;7638;49.760;8.646;2022-07-21T01:34:01;13.90;;;10.87;;
15077;SDS011;7638;49.760;8.646;2022-07-21T01:36:27;15.20;;;11.60;;
15077;SDS011;7638;49.760;8.646;2022-07-21T01:38:54;16.43;;;11.03;;
15077;SDS011;7638;49.760;8.646;2022-07-21T01:41:38;17.30;;;13.03;;
15077;SDS011;7638;49.760;8.646;2022-07-21T01:44:08;15.63;;;11.83;;
15077;SDS011;7638;49.760;8.646;2022-07-21T01:46:35;13.57;;;11.90;;
15077;SDS011;7638;49.760;8.646;2022-07-21T01:49:02;13.83;;;11.77;;
15077;SDS011;7638;49.760;8.646;2022-07-21T01:51:28;14.43;;;11.83;;
15077;SDS011;7638;49.760;8.646;2022-07-21T01:53:54;15.60;;;12.47;;
15077;SDS011;7638;49.760;8.646;2022-07-21T01:56:20;18.97;;;12.80;;
15077;SDS011;7638;49.760;8.646;2022-07-21T01:58:47;17.70;;;12.90;;
15077;SDS011;7638;49.760;8.646;2022-07-21T02:01:17;16.83;;;13.53;;
15077;SDS011;7638;49.760;8.646;2022-07-21T02:03:43;18.50;;;11.87;;
15077;SDS011;7638;49.760;8.646;2022-07-21T02:06:09;17.87;;;12.73;;
15077;SDS011;7638;49.760;8.646;2022-07-21T02:08:35;16.43;;;13.80;;
15077;SDS011;7638;49.760;8.646;2022-07-21T02:11:02;14.90;;;12.57;;
15077;SDS011;7638;49.760;8.646;2022-07-21T02:13:28;17.03;;;12.50;;
15077;SDS011;7638;49.760;8.646;2022-07-21T02:15:54;16.20;;;12.93;;
15077;SDS011;7638;49.760;8.646;2022-07-21T02:18:20;16.60;;;13.87;;
15077;SDS011;7638;49.760;8.646;2022-07-21T02:20:46;15.53;;;13.43;;
15077;SDS011;7638;49.760;8.646;2022-07-21T02:23:13;19.10;;;14.63;;
15077;SDS011;7638;49.760;8.646;2022-07-21T02:25:39;13.97;;;12.30;;
15077;SDS011;7638;49.760;8.646;2022-07-21T02:28:05;15.40;;;12.97;;
15077;SDS011;7638;49.760;8.646;2022-07-21T02:30:31;15.07;;;13.47;;
15077;SDS011;7638;49.760;8.646;2022-07-21T02:32:57;15.90;;;12.03;;
15077;SDS011;7638;49.760;8.646;2022-07-21T02:35:23;17.50;;;12.63;;
15077;SDS011;7638;49.760;8.646;2022-07-21T02:37:49;16.27;;;11.43;;
15077;SDS011;7638;49.760;8.646;2022-07-21T02:40:15;18.30;;;13.30;;
15077;SDS011;7638;49.760;8.646;2022-07-21T02:42:41;15.07;;;12.77;;
15077;SDS011;7638;49.760;8.646;2022-07-21T02:45:08;14.53;;;13.03;;
15077;SDS011;7638;49.760;8.646;2022-07-21T02:47:50;18.37;;;13.00;;
15077;SDS011;7638;49.760;8.646;2022-07-21T02:50:17;15.63;;;12.17;;
15077;SDS011;7638;49.760;8.646;2022-07-21T02:52:44;15.67;;;12.30;;
15077;SDS011;7638;49.760;8.646;2022-07-21T02:55:10;14.43;;;12.20;;
15077;SDS011;7638;49.760;8.646;2022-07-21T02:57:36;16.40;;;12.47;;
15077;SDS011;7638;49.760;8.646;2022-07-21T03:00:06;13.30;;;12.00;;
15077;SDS011;7638;49.760;8.646;2022-07-21T03:02:33;15.27;;;12.30;;
15077;SDS011;7638;49.760;8.646;2022-07-21T03:04:59;14.57;;;11.73;;
15077;SDS011;7638;49.760;8.646;2022-07-21T03:07:25;16.87;;;12.07;;
15077;SDS011;7638;49.760;8.646;2022-07-21T03:09:51;14.73;;;12.13;;
15077;SDS011;7638;49.760;8.646;2022-07-21T03:12:17;14.00;;;12.60;;
15077;SDS011;7638;49.760;8.646;2022-07-21T03:14:43;18.53;;;12.37;;
15077;SDS011;7638;49.760;8.646;2022-07-21T03:17:09;14.20;;;11.80;;
15077;SDS011;7638;49.760;8.646;2022-07-21T03:19:35;15.20;;;12.03;;
15077;SDS011;7638;49.760;8.646;2022-07-21T03:22:01;14.53;;;12.03;;
15077;SDS011;7638;49.760;8.646;2022-07-21T03:24:27;13.13;;;10.27;;
15077;SDS011;7638;49.760;8.646;2022-07-21T03:26:54;12.70;;;10.40;;
15077;SDS011;7638;49.760;8.646;2022-07-21T03:29:21;14.30;;;11.20;;
15077;SDS011;7638;49.760;8.646;2022-07-21T03:31:47;13.87;;;9.90;;
15077;SDS011;7638;49.760;8.646;2022-07-21T03:34:13;17.83;;;11.07;;
15077;SDS011;7638;49.760;8.646;2022-07-21T03:36:39;12.53;;;10.13;;
15077;SDS011;7638;49.760;8.646;2022-07-21T03:39:05;11.47;;;9.53;;
15077;SDS011;7638;49.760;8.646;2022-07-21T03:41:31;17.13;;;10.47;;
15077;SDS011;7638;49.760;8.646;2022-07-21T03:43:57;12.53;;;11.23;;
15077;SDS011;7638;49.760;8.646;2022-07-21T03:46:23;13.60;;;9.47;;
15077;SDS011;7638;49.760;8.646;2022-07-21T03:48:49;11.13;;;8.60;;
15077;SDS011;7638;49.760;8.646;2022-07-21T03:51:15;11.93;;;10.10;;
15077;SDS011;7638;49.760;8.646;2022-07-21T03:53:41;10.50;;;9.40;;
15077;SDS011;7638;49.760;8.646;2022-07-21T03:56:07;10.10;;;7.77;;
15077;SDS011;7638;49.760;8.646;2022-07-21T03:58:33;12.00;;;7.97;;
15077;SDS011;7638;49.760;8.646;2022-07-21T04:00:59;15.10;;;9.77;;
15077;SDS011;7638;49.760;8.646;2022-07-21T04:03:25;12.37;;;8.43;;
15077;SDS011;7638;49.760;8.646;2022-07-21T04:05:51;8.50;;;7.60;;
15077;SDS011;7638;49.760;8.646;2022-07-21T04:08:17;10.67;;;8.67;;
15077;SDS011;7638;49.760;8.646;2022-07-21T04:10:43;9.47;;;7.83;;
15077;SDS011;7638;49.760;8.646;2022-07-21T04:13:10;9.60;;;7.40;;
15077;SDS011;7638;49.760;8.646;2022-07-21T04:15:37;9.00;;;7.53;;
15077;SDS011;7638;49.760;8.646;2022-07-21T04:18:03;10.83;;;7.27;;
15077;SDS011;7638;49.760;8.646;2022-07-21T04:20:30;8.23;;;7.40;;
15077;SDS011;7638;49.760;8.646;2022-07-21T04:22:56;9.27;;;7.60;;
15077;SDS011;7638;49.760;8.646;2022-07-21T04:25:22;7.77;;;6.50;;
15077;SDS011;7638;49.760;8.646;2022-07-21T04:27:48;9.83;;;6.97;;
15077;SDS011;7638;49.760;8.646;2022-07-21T04:30:15;10.57;;;6.83;;
15077;SDS011;7638;49.760;8.646;2022-07-21T04:32:41;9.07;;;6.30;;
15077;SDS011;7638;49.760;8.646;2022-07-21T04:35:08;7.90;;;6.00;;
15077;SDS011;7638;49.760;8.646;2022-07-21T04:37:34;7.63;;;6.10;;
15077;SDS011;7638;49.760;8.646;2022-07-21T04:40:00;8.23;;;6.70;;
15077;SDS011;7638;49.760;8.646;2022-07-21T04:42:26;8.83;;;6.87;;
15077;SDS011;7638;49.760;8.646;2022-07-21T04:44:52;7.90;;;6.60;;
15077;SDS011;7638;49.760;8.646;2022-07-21T04:47:18;13.43;;;6.67;;
15077;SDS011;7638;49.760;8.646;2022-07-21T04:49:45;10.53;;;6.27;;
15077;SDS011;7638;49.760;8.646;2022-07-21T04:52:11;8.43;;;6.87;;
15077;SDS011;7638;49.760;8.646;2022-07-21T04:54:37;10.67;;;6.63;;
15077;SDS011;7638;49.760;8.646;2022-07-21T04:57:03;7.43;;;6.53;;
15077;SDS011;7638;49.760;8.646;2022-07-21T04:59:31;10.20;;;6.77;;
15077;SDS011;7638;49.760;8.646;2022-07-21T05:01:57;13.13;;;8.23;;
15077;SDS011;7638;49.760;8.646;2022-07-21T05:04:24;10.70;;;7.73;;
15077;SDS011;7638;49.760;8.646;2022-07-21T05:06:50;8.90;;;6.67;;
15077;SDS011;7638;49.760;8.646;2022-07-21T05:09:16;10.03;;;6.97;;
15077;SDS011;7638;49.760;8.646;2022-07-21T05:11:42;8.53;;;7.73;;
15077;SDS011;7638;49.760;8.646;2022-07-21T05:14:08;12.50;;;8.27;;
15077;SDS011;7638;49.760;8.646;2022-07-21T05:16:34;14.50;;;9.07;;
15077;SDS011;7638;49.760;8.646;2022-07-21T05:19:00;8.20;;;7.40;;
15077;SDS011;7638;49.760;8.646;2022-07-21T05:21:26;9.80;;;8.90;;
15077;SDS011;7638;49.760;8.646;2022-07-21T05:23:52;11.67;;;9.77;;
15077;SDS011;7638;49.760;8.646;2022-07-21T05:26:18;11.23;;;9.63;;
15077;SDS011;7638;49.760;8.646;2022-07-21T05:28:44;11.63;;;8.37;;
15077;SDS011;7638;49.760;8.646;2022-07-21T05:31:13;11.07;;;8.80;;
15077;SDS011;7638;49.760;8.646;2022-07-21T05:33:39;10.23;;;8.17;;
15077;SDS011;7638;49.760;8.646;2022-07-21T05:36:06;10.57;;;7.87;;
15077;SDS011;7638;49.760;8.646;2022-07-21T05:38:32;11.60;;;8.63;;
15077;SDS011;7638;49.760;8.646;2022-07-21T05:40:59;11.70;;;8.67;;
15077;SDS011;7638;49.760;8.646;2022-07-21T05:43:25;9.83;;;7.27;;
15077;SDS011;7638;49.760;8.646;2022-07-21T05:45:52;8.37;;;6.87;;
15077;SDS011;7638;49.760;8.646;2022-07-21T05:48:18;10.03;;;7.63;;
15077;SDS011;7638;49.760;8.646;2022-07-21T05:50:44;9.17;;;6.93;;
15077;SDS011;7638;49.760;8.646;2022-07-21T05:53:10;9.73;;;6.43;;
15077;SDS011;7638;49.760;8.646;2022-07-21T05:55:36;8.27;;;6.83;;
15077;SDS011;7638;49.760;8.646;2022-07-21T05:58:02;9.40;;;6.83;;
15077;SDS011;7638;49.760;8.646;2022-07-21T06:00:28;8.20;;;6.33;;
15077;SDS011;7638;49.760;8.646;2022-07-21T06:02:54;7.60;;;6.77;;
15077;SDS011;7638;49.760;8.646;2022-07-21T06:05:21;8.00;;;5.43;;
15077;SDS011;7638;49.760;8.646;2022-07-21T06:07:47;7.63;;;5.50;;
15077;SDS011;7638;49.760;8.646;2022-07-21T06:10:13;7.40;;;5.53;;
15077;SDS011;7638;49.760;8.646;2022-07-21T06:12:39;9.07;;;6.20;;
15077;SDS011;7638;49.760;8.646;2022-07-21T06:15:06;10.47;;;5.67;;
15077;SDS011;7638;49.760;8.646;2022-07-21T06:17:37;8.93;;;7.20;;
15077;SDS011;7638;49.760;8.646;2022-07-21T06:20:04;8.50;;;6.30;;
15077;SDS011;7638;49.760;8.646;2022-07-21T06:22:30;10.40;;;7.47;;
15077;SDS011;7638;49.760;8.646;2022-07-21T06:24:56;9.80;;;7.50;;
15077;SDS011;7638;49.760;8.646;2022-07-21T06:27:23;12.33;;;7.40;;
15077;SDS011;7638;49.760;8.646;2022-07-21T06:29:48;8.33;;;7.03;;
15077;SDS011;7638;49.760;8.646;2022-07-21T06:32:14;8.57;;;6.73;;
15077;SDS011;7638;49.760;8.646;2022-07-21T06:34:40;7.70;;;6.40;;
15077;SDS011;7638;49.760;8.646;2022-07-21T06:37:06;8.70;;;7.50;;
15077;SDS011;7638;49.760;8.646;2022-07-21T06:39:32;8.17;;;7.37;;
15077;SDS011;7638;49.760;8.646;2022-07-21T06:41:58;8.53;;;7.60;;
15077;SDS011;7638;49.760;8.646;2022-07-21T06:44:24;9.30;;;7.13;;
15077;SDS011;7638;49.760;8.646;2022-07-21T06:46:51;9.10;;;6.80;;
15077;SDS011;7638;49.760;8.646;2022-07-21T06:49:18;8.43;;;7.23;;
15077;SDS011;7638;49.760;8.646;2022-07-21T06:51:44;8.03;;;6.80;;
15077;SDS011;7638;49.760;8.646;2022-07-21T06:54:10;9.57;;;6.97;;
15077;SDS011;7638;49.760;8.646;2022-07-21T06:56:36;8.43;;;6.90;;
15077;SDS011;7638;49.760;8.646;2022-07-21T06:59:02;9.27;;;6.70;;
15077;SDS011;7638;49.760;8.646;2022-07-21T07:01:28;9.30;;;6.90;;
15077;SDS011;7638;49.760;8.646;2022-07-21T07:03:54;8.40;;;6.20;;
15077;SDS011;7638;49.760;8.646;2022-07-21T07:06:20;7.40;;;6.53;;
15077;SDS011;7638;49.760;8.646;2022-07-21T07:08:48;9.27;;;6.27;;
15077;SDS011;7638;49.760;8.646;2022-07-21T07:11:14;8.80;;;6.10;;
15077;SDS011;7638;49.760;8.646;2022-07-21T07:13:41;8.37;;;5.77;;
15077;SDS011;7638;49.760;8.646;2022-07-21T07:16:07;7.27;;;6.23;;
15077;SDS011;7638;49.760;8.646;2022-07-21T07:18:33;8.20;;;6.03;;
15077;SDS011;7638;49.760;8.646;2022-07-21T07:20:59;8.67;;;6.20;;
15077;SDS011;7638;49.760;8.646;2022-07-21T07:23:25;9.10;;;5.97;;
15077;SDS011;7638;49.760;8.646;2022-07-21T07:25:51;7.00;;;6.30;;
15077;SDS011;7638;49.760;8.646;2022-07-21T07:28:17;10.30;;;6.57;;
15077;SDS011;7638;49.760;8.646;2022-07-21T07:30:43;7.30;;;5.80;;
15077;SDS011;7638;49.760;8.646;2022-07-21T07:33:09;8.17;;;5.77;;
15077;SDS011;7638;49.760;8.646;2022-07-21T07:35:35;9.87;;;6.03;;
15077;SDS011;7638;49.760;8.646;2022-07-21T07:38:01;9.03;;;6.30;;
15077;SDS011;7638;49.760;8.646;2022-07-21T07:40:27;8.33;;;6.17;;
15077;SDS011;7638;49.760;8.646;2022-07-21T07:42:53;8.97;;;5.40;;
15077;SDS011;7638;49.760;8.646;2022-07-21T07:45:19;8.63;;;6.23;;
15077;SDS011;7638;49.760;8.646;2022-07-21T07:47:45;5.53;;;4.93;;
15077;SDS011;7638;49.760;8.646;2022-07-21T07:50:11;6.13;;;5.53;;
15077;SDS011;7638;49.760;8.646;2022-07-21T07:52:38;6.63;;;5.43;;
15077;SDS011;7638;49.760;8.646;2022-07-21T07:55:05;9.03;;;6.30;;
15077;SDS011;7638;49.760;8.646;2022-07-21T07:57:33;6.80;;;5.50;;
15077;SDS011;7638;49.760;8.646;2022-07-21T07:59:59;6.00;;;5.40;;
15077;SDS011;7638;49.760;8.646;2022-07-21T08:02:25;9.67;;;5.70;;
15077;SDS011;7638;49.760;8.646;2022-07-21T08:04:51;7.23;;;5.43;;
15077;SDS011;7638;49.760;8.646;2022-07-21T08:07:17;6.07;;;5.40;;
15077;SDS011;7638;49.760;8.646;2022-07-21T08:09:43;7.17;;;5.37;;
15077;SDS011;7638;49.760;8.646;2022-07-21T08:12:09;5.83;;;4.80;;
15077;SDS011;7638;49.760;8.646;2022-07-21T08:14:36;7.67;;;5.80;;
15077;SDS011;7638;49.760;8.646;2022-07-21T08:17:03;5.80;;;4.97;;
15077;SDS011;7638;49.760;8.646;2022-07-21T08:19:29;6.83;;;4.30;;
15077;SDS011;7638;49.760;8.646;2022-07-21T08:21:55;9.93;;;5.70;;
15077;SDS011;7638;49.760;8.646;2022-07-21T08:24:21;6.50;;;4.93;;
15077;SDS011;7638;49.760;8.646;2022-07-21T08:26:47;6.53;;;4.63;;
15077;SDS011;7638;49.760;8.646;2022-07-21T08:29:14;5.87;;;5.23;;
15077;SDS011;7638;49.760;8.646;2022-07-21T08:31:40;7.33;;;5.13;;
15077;SDS011;7638;49.760;8.646;2022-07-21T08:34:06;8.03;;;4.87;;
15077;SDS011;7638;49.760;8.646;2022-07-21T08:36:32;6.03;;;5.07;;
15077;SDS011;7638;49.760;8.646;2022-07-21T08:38:58;6.07;;;5.17;;
15077;SDS011;7638;49.760;8.646;2022-07-21T08:41:24;6.80;;;4.83;;
15077;SDS011;7638;49.760;8.646;2022-07-21T08:43:50;5.50;;;4.30;;
15077;SDS011;7638;49.760;8.646;2022-07-21T08:46:16;8.30;;;5.00;;
15077;SDS011;7638;49.760;8.646;2022-07-21T08:48:43;6.27;;;4.70;;
15077;SDS011;7638;49.760;8.646;2022-07-21T08:51:09;5.03;;;4.53;;
15077;SDS011;7638;49.760;8.646;2022-07-21T08:53:36;5.17;;;4.67;;
15077;SDS011;7638;49.760;8.646;2022-07-21T08:56:02;6.13;;;5.17;;
15077;SDS011;7638;49.760;8.646;2022-07-21T08:58:28;6.33;;;4.57;;
15077;SDS011;7638;49.760;8.646;2022-07-21T09:00:54;5.90;;;5.30;;
15077;SDS011;7638;49.760;8.646;2022-07-21T09:03:21;6.50;;;5.83;;
15077;SDS011;7638;49.760;8.646;2022-07-21T09:13:36;5.87;;;5.23;;
15077;SDS011;7638;49.760;8.646;2022-07-21T09:16:03;7.90;;;6.13;;
15077;SDS011;7638;49.760;8.646;2022-07-21T09:18:29;6.70;;;5.30;;
15077;SDS011;7638;49.760;8.646;2022-07-21T09:20:55;8.23;;;6.33;;
15077;SDS011;7638;49.760;8.646;2022-07-21T09:23:24;8.23;;;4.60;;
15077;SDS011;7638;49.760;8.646;2022-07-21T09:25:51;7.77;;;5.20;;
15077;SDS011;7638;49.760;8.646;2022-07-21T09:28:18;7.53;;;4.57;;
15077;SDS011;7638;49.760;8.646;2022-07-21T09:30:48;6.00;;;4.63;;
15077;SDS011;7638;49.760;8.646;2022-07-21T09:33:22;8.37;;;5.20;;
15077;SDS011;7638;49.760;8.646;2022-07-21T09:36:22;5.13;;;4.63;;
15077;SDS011;7638;49.760;8.646;2022-07-21T09:38:45;6.47;;;5.37;;
15077;SDS011;7638;49.760;8.646;2022-07-21T09:41:19;6.73;;;5.03;;
15077;SDS011;7638;49.760;8.646;2022-07-21T09:43:46;7.10;;;5.37;;
15077;SDS011;7638;49.760;8.646;2022-07-21T09:46:26;7.70;;;5.50;;
15077;SDS011;7638;49.760;8.646;2022-07-21T09:49:00;8.87;;;5.23;;
15077;SDS011;7638;49.760;8.646;2022-07-21T09:51:31;7.47;;;5.60;;
15077;SDS011;7638;49.760;8.646;2022-07-21T09:56:28;5.47;;;4.93;;
15077;SDS011;7638;49.760;8.646;2022-07-21T09:58:55;6.33;;;5.30;;
15077;SDS011;7638;49.760;8.646;2022-07-21T10:01:25;5.20;;;4.70;;
15077;SDS011;7638;49.760;8.646;2022-07-21T10:03:52;4.90;;;4.50;;
15077;SDS011;7638;49.760;8.646;2022-07-21T10:06:19;5.70;;;5.07;;
15077;SDS011;7638;49.760;8.646;2022-07-21T10:08:45;7.57;;;5.27;;
15077;SDS011;7638;49.760;8.646;2022-07-21T10:11:12;6.53;;;5.13;;
15077;SDS011;7638;49.760;8.646;2022-07-21T10:13:38;10.13;;;5.77;;
15077;SDS011;7638;49.760;8.646;2022-07-21T10:16:05;9.00;;;5.30;;
15077;SDS011;7638;49.760;8.646;2022-07-21T10:18:54;6.80;;;4.80;;
15077;SDS011;7638;49.760;8.646;2022-07-21T10:24:02;5.90;;;5.00;;
15077;SDS011;7638;49.760;8.646;2022-07-21T10:26:30;4.90;;;4.40;;
15077;SDS011;7638;49.760;8.646;2022-07-21T10:28:56;7.93;;;4.70;;
15077;SDS011;7638;49.760;8.646;2022-07-21T10:31:25;4.97;;;4.47;;
15077;SDS011;7638;49.760;8.646;2022-07-21T10:33:58;5.77;;;4.57;;
15077;SDS011;7638;49.760;8.646;2022-07-21T10:41:54;6.43;;;5.20;;
15077;SDS011;7638;49.760;8.646;2022-07-21T10:47:05;11.13;;;4.73;;
15077;SDS011;7638;49.760;8.646;2022-07-21T10:49:42;5.33;;;4.83;;
15077;SDS011;7638;49.760;8.646;2022-07-21T10:57:41;6.47;;;4.97;;
15077;SDS011;7638;49.760;8.646;2022-07-21T11:00:24;5.93;;;4.27;;
15077;SDS011;7638;49.760;8.646;2022-07-21T11:02:58;4.80;;;4.10;;
15077;SDS011;7638;49.760;8.646;2022-07-21T11:05:25;4.27;;;3.87;;
15077;SDS011;7638;49.760;8.646;2022-07-21T11:10:40;5.40;;;3.80;;
15077;SDS011;7638;49.760;8.646;2022-07-21T11:13:06;5.17;;;4.07;;
15077;SDS011;7638;49.760;8.646;2022-07-21T11:18:17;4.97;;;4.00;;
15077;SDS011;7638;49.760;8.646;2022-07-21T11:20:57;6.03;;;4.43;;
15077;SDS011;7638;49.760;8.646;2022-07-21T11:23:33;6.70;;;4.50;;
15077;SDS011;7638;49.760;8.646;2022-07-21T11:25:59;6.87;;;3.83;;
15077;SDS011;7638;49.760;8.646;2022-07-21T11:28:25;7.63;;;4.30;;
15077;SDS011;7638;49.760;8.646;2022-07-21T11:31:05;6.20;;;3.77;;
15077;SDS011;7638;49.760;8.646;2022-07-21T11:33:31;4.80;;;3.87;;
15077;SDS011;7638;49.760;8.646;2022-07-21T11:35:57;5.77;;;3.50;;
15077;SDS011;7638;49.760;8.646;2022-07-21T11:38:23;3.90;;;3.50;;
15077;SDS011;7638;49.760;8.646;2022-07-21T11:40:49;4.60;;;2.97;;
15077;SDS011;7638;49.760;8.646;2022-07-21T11:43:15;4.00;;;3.50;;
15077;SDS011;7638;49.760;8.646;2022-07-21T11:45:51;6.53;;;3.47;;
15077;SDS011;7638;49.760;8.646;2022-07-21T11:48:29;3.67;;;3.37;;
15077;SDS011;7638;49.760;8.646;2022-07-21T11:50:59;4.07;;;3.67;;
15077;SDS011;7638;49.760;8.646;2022-07-21T11:53:26;6.20;;;4.20;;
15077;SDS011;7638;49.760;8.646;2022-07-21T11:55:52;4.13;;;3.60;;
15077;SDS011;7638;49.760;8.646;2022-07-21T11:58:19;4.57;;;3.90;;
15077;SDS011;7638;49.760;8.646;2022-07-21T12:00:45;5.20;;;4.40;;
15077;SDS011;7638;49.760;8.646;2022-07-21T12:03:14;5.93;;;4.43;;
15077;SDS011;7638;49.760;8.646;2022-07-21T12:05:40;4.10;;;3.70;;
15077;SDS011;7638;49.760;8.646;2022-07-21T12:08:06;4.53;;;3.80;;
15077;SDS011;7638;49.760;8.646;2022-07-21T12:10:33;4.13;;;3.67;;
15077;SDS011;7638;49.760;8.646;2022-07-21T12:12:59;4.77;;;4.23;;
15077;SDS011;7638;49.760;8.646;2022-07-21T12:15:27;7.27;;;4.00;;
15077;SDS011;7638;49.760;8.646;2022-07-21T12:17:58;4.10;;;3.80;;
15077;SDS011;7638;49.760;8.646;2022-07-21T12:22:50;4.87;;;3.40;;
15077;SDS011;7638;49.760;8.646;2022-07-21T12:25:17;5.17;;;3.77;;
15077;SDS011;7638;49.760;8.646;2022-07-21T12:27:45;6.53;;;3.90;;
15077;SDS011;7638;49.760;8.646;2022-07-21T12:30:28;5.17;;;4.50;;
15077;SDS011;7638;49.760;8.646;2022-07-21T12:32:56;4.50;;;4.07;;
15077;SDS011;7638;49.760;8.646;2022-07-21T12:35:26;3.97;;;3.57;;
15077;SDS011;7638;49.760;8.646;2022-07-21T12:37:57;4.87;;;3.90;;
15077;SDS011;7638;49.760;8.646;2022-07-21T12:40:24;5.17;;;4.27;;
15077;SDS011;7638;49.760;8.646;2022-07-21T12:42:51;10.03;;;4.13;;
15077;SDS011;7638;49.760;8.646;2022-07-21T12:45:20;4.67;;;4.03;;
15077;SDS011;7638;49.760;8.646;2022-07-21T12:48:05;5.13;;;3.87;;
15077;SDS011;7638;49.760;8.646;2022-07-21T12:50:31;5.33;;;3.73;;
15077;SDS011;7638;49.760;8.646;2022-07-21T12:52:58;8.77;;;4.43;;
15077;SDS011;7638;49.760;8.646;2022-07-21T12:55:24;4.93;;;4.27;;
15077;SDS011;7638;49.760;8.646;2022-07-21T12:57:50;5.80;;;4.60;;
15077;SDS011;7638;49.760;8.646;2022-07-21T13:00:16;4.43;;;4.03;;
15077;SDS011;7638;49.760;8.646;2022-07-21T13:02:46;4.80;;;4.40;;
15077;SDS011;7638;49.760;8.646;2022-07-21T13:05:12;6.63;;;4.23;;
15077;SDS011;7638;49.760;8.646;2022-07-21T13:07:38;4.90;;;4.40;;
15077;SDS011;7638;49.760;8.646;2022-07-21T13:10:04;5.07;;;4.57;;
15077;SDS011;7638;49.760;8.646;2022-07-21T13:12:31;8.00;;;4.60;;
15077;SDS011;7638;49.760;8.646;2022-07-21T13:14:57;5.87;;;4.90;;
15077;SDS011;7638;49.760;8.646;2022-07-21T13:17:23;5.03;;;4.60;;
15077;SDS011;7638;49.760;8.646;2022-07-21T13:19:49;8.60;;;5.47;;
15077;SDS011;7638;49.760;8.646;2022-07-21T13:22:15;8.07;;;5.43;;
15077;SDS011;7638;49.760;8.646;2022-07-21T13:24:41;6.90;;;4.83;;
15077;SDS011;7638;49.760;8.646;2022-07-21T13:27:07;5.33;;;4.83;;
15077;SDS011;7638;49.760;8.646;2022-07-21T13:29:33;7.97;;;5.00;;
15077;SDS011;7638;49.760;8.646;2022-07-21T13:32:00;6.53;;;5.43;;
15077;SDS011;7638;49.760;8.646;2022-07-21T13:34:26;5.47;;;4.97;;
15077;SDS011;7638;49.760;8.646;2022-07-21T13:36:52;7.73;;;5.47;;
15077;SDS011;7638;49.760;8.646;2022-07-21T13:39:18;5.90;;;5.40;;
15077;SDS011;7638;49.760;8.646;2022-07-21T13:41:46;5.53;;;4.67;;
15077;SDS011;7638;49.760;8.646;2022-07-21T13:44:12;8.43;;;5.30;;
15077;SDS011;7638;49.760;8.646;2022-07-21T13:46:38;6.40;;;5.07;;
15077;SDS011;7638;49.760;8.646;2022-07-21T13:49:04;6.43;;;5.00;;
15077;SDS011;7638;49.760;8.646;2022-07-21T13:51:30;8.67;;;5.60;;
15077;SDS011;7638;49.760;8.646;2022-07-21T13:53:56;6.60;;;5.67;;
15077;SDS011;7638;49.760;8.646;2022-07-21T13:56:22;7.13;;;5.33;;
15077;SDS011;7638;49.760;8.646;2022-07-21T13:58:48;5.30;;;4.80;;
15077;SDS011;7638;49.760;8.646;2022-07-21T14:01:14;9.87;;;5.20;;
15077;SDS011;7638;49.760;8.646;2022-07-21T14:03:40;5.40;;;4.90;;
15077;SDS011;7638;49.760;8.646;2022-07-21T14:06:06;5.57;;;5.00;;
15077;SDS011;7638;49.760;8.646;2022-07-21T14:08:33;5.83;;;5.27;;
15077;SDS011;7638;49.760;8.646;2022-07-21T14:10:59;9.23;;;5.20;;
15077;SDS011;7638;49.760;8.646;2022-07-21T14:13:25;6.10;;;5.17;;
15077;SDS011;7638;49.760;8.646;2022-07-21T14:15:51;5.33;;;4.63;;
15077;SDS011;7638;49.760;8.646;2022-07-21T14:18:17;5.87;;;5.27;;
15077;SDS011;7638;49.760;8.646;2022-07-21T14:20:43;9.03;;;5.30;;
15077;SDS011;7638;49.760;8.646;2022-07-21T14:23:09;5.47;;;4.60;;
15077;SDS011;7638;49.760;8.646;2022-07-21T14:25:35;5.10;;;4.57;;
15077;SDS011;7638;49.760;8.646;2022-07-21T14:28:01;5.20;;;4.70;;
15077;SDS011;7638;49.760;8.646;2022-07-21T14:30:27;5.93;;;5.20;;
15077;SDS011;7638;49.760;8.646;2022-07-21T14:32:53;9.23;;;4.80;;
15077;SDS011;7638;49.760;8.646;2022-07-21T14:35:20;6.17;;;4.67;;
15077;SDS011;7638;49.760;8.646;2022-07-21T14:37:47;7.83;;;5.10;;
15077;SDS011;7638;49.760;8.646;2022-07-21T14:40:13;5.63;;;5.13;;
15077;SDS011;7638;49.760;8.646;2022-07-21T14:42:40;5.47;;;4.53;;
15077;SDS011;7638;49.760;8.646;2022-07-21T14:45:06;4.97;;;4.47;;
15077;SDS011;7638;49.760;8.646;2022-07-21T14:47:32;6.00;;;4.30;;
15077;SDS011;7638;49.760;8.646;2022-07-21T14:49:59;6.70;;;5.23;;
15077;SDS011;7638;49.760;8.646;2022-07-21T14:52:25;4.80;;;4.33;;
15077;SDS011;7638;49.760;8.646;2022-07-21T14:54:51;5.90;;;4.53;;
15077;SDS011;7638;49.760;8.646;2022-07-21T14:57:17;10.27;;;4.73;;
15077;SDS011;7638;49.760;8.646;2022-07-21T14:59:43;6.10;;;4.87;;
15077;SDS011;7638;49.760;8.646;2022-07-21T15:02:10;5.50;;;4.47;;
15077;SDS011;7638;49.760;8.646;2022-07-21T15:04:36;6.70;;;5.27;;
15077;SDS011;7638;49.760;8.646;2022-07-21T15:07:02;7.80;;;5.23;;
15077;SDS011;7638;49.760;8.646;2022-07-21T15:09:28;11.63;;;4.93;;
15077;SDS011;7638;49.760;8.646;2022-07-21T15:11:54;10.83;;;5.07;;
15077;SDS011;7638;49.760;8.646;2022-07-21T15:14:20;10.20;;;4.93;;
15077;SDS011;7638;49.760;8.646;2022-07-21T15:16:46;5.13;;;4.00;;
15077;SDS011;7638;49.760;8.646;2022-07-21T15:19:12;15.27;;;4.93;;
15077;SDS011;7638;49.760;8.646;2022-07-21T15:21:38;5.33;;;4.50;;
15077;SDS011;7638;49.760;8.646;2022-07-21T15:24:05;5.30;;;4.80;;
15077;SDS011;7638;49.760;8.646;2022-07-21T15:26:31;7.90;;;4.30;;
15077;SDS011;7638;49.760;8.646;2022-07-21T15:28:57;4.80;;;4.40;;